createdAt,value
2022-11-27T00:01:33.324Z,16.38
2022-11-27T00:04:00.697Z,15.95
2022-11-27T00:06:29.419Z,16.80
2022-11-27T00:09:01.263Z,15.15
2022-11-27T00:11:31.035Z,15.73
2022-11-27T00:13:58.580Z,15.73
2022-11-27T00:16:27.273Z,15.85
2022-11-27T00:18:54.535Z,15.57
2022-11-27T00:21:24.822Z,15.48
2022-11-27T00:23:53.626Z,15.68
2022-11-27T00:26:22.438Z,15.90
2022-11-27T00:28:50.657Z,15.13
2022-11-27T00:31:21.447Z,15.93
2022-11-27T00:33:49.243Z,15.25
2022-11-27T00:36:16.904Z,15.55
2022-11-27T00:38:44.097Z,16.35
2022-11-27T00:41:23.205Z,16.13
2022-11-27T00:43:50.835Z,15.00
2022-11-27T00:46:25.371Z,15.95
2022-11-27T00:48:56.668Z,15.75
2022-11-27T00:51:25.017Z,14.82
2022-11-27T00:53:53.474Z,15.73
2022-11-27T00:56:26.424Z,15.90
2022-11-27T00:58:54.094Z,13.63
2022-11-27T01:01:27.683Z,15.48
2022-11-27T01:03:56.280Z,15.70
2022-11-27T01:06:24.842Z,15.05
2022-11-27T01:08:52.275Z,15.95
2022-11-27T01:11:23.018Z,15.27
2022-11-27T01:13:50.214Z,16.98
2022-11-27T01:16:21.085Z,16.23
2022-11-27T01:18:49.528Z,15.60
2022-11-27T01:21:19.804Z,15.82
2022-11-27T01:23:48.231Z,15.55
2022-11-27T01:26:17.894Z,15.95
2022-11-27T01:28:45.923Z,16.13
2022-11-27T01:31:16.852Z,14.98
2022-11-27T01:33:46.435Z,15.98
2022-11-27T01:36:15.875Z,16.85
2022-11-27T01:38:43.383Z,16.42
2022-11-27T01:41:24.002Z,15.50
2022-11-27T01:43:55.920Z,15.68
2022-11-27T01:46:29.310Z,15.82
2022-11-27T01:49:08.866Z,15.32
2022-11-27T01:51:46.035Z,15.50
2022-11-27T01:54:15.197Z,16.35
2022-11-27T01:56:46.012Z,15.57
2022-11-27T01:59:14.014Z,14.98
2022-11-27T02:01:41.480Z,15.98
2022-11-27T02:04:08.657Z,13.38
2022-11-27T02:06:36.214Z,14.43
2022-11-27T02:09:03.881Z,14.18
2022-11-27T02:11:58.634Z,13.43
2022-11-27T02:15:00.998Z,13.43
2022-11-27T02:17:36.646Z,13.02
2022-11-27T02:20:29.219Z,14.13
2022-11-27T02:23:30.739Z,12.45
2022-11-27T02:26:12.438Z,11.40
2022-11-27T02:29:02.553Z,11.75
2022-11-27T02:31:53.092Z,11.75
2022-11-27T02:34:49.615Z,10.93
2022-11-27T02:37:32.535Z,11.98
2022-11-27T02:40:26.328Z,11.57
2022-11-27T02:43:06.466Z,11.88
2022-11-27T02:45:55.755Z,11.32
2022-11-27T02:48:27.229Z,11.82
2022-11-27T02:50:56.030Z,12.00
2022-11-27T02:53:28.668Z,11.52
2022-11-27T02:55:58.283Z,11.93
2022-11-27T02:58:28.463Z,11.98
2022-11-27T03:00:58.010Z,11.85
2022-11-27T03:03:30.016Z,15.40
2022-11-27T03:06:03.566Z,12.05
2022-11-27T03:08:51.326Z,11.02
2022-11-27T03:11:18.852Z,11.13
2022-11-27T03:13:51.754Z,10.35
2022-11-27T03:16:49.876Z,9.82
2022-11-27T03:19:20.195Z,9.07
2022-11-27T03:21:52.686Z,9.13
2022-11-27T03:24:19.987Z,9.23
2022-11-27T03:26:48.051Z,9.25
2022-11-27T03:29:20.548Z,9.07
2022-11-27T03:31:49.424Z,8.93
2022-11-27T03:34:16.797Z,9.95
2022-11-27T03:36:45.702Z,9.93
2022-11-27T03:39:13.409Z,9.68
2022-11-27T03:41:53.592Z,10.40
2022-11-27T03:44:32.900Z,9.88
2022-11-27T03:47:30.436Z,11.40
2022-11-27T03:50:12.961Z,10.40
2022-11-27T03:53:00.536Z,10.85
2022-11-27T03:55:46.416Z,11.18
2022-11-27T03:58:26.084Z,10.18
2022-11-27T04:00:54.811Z,19.48
2022-11-27T04:03:28.643Z,11.68
2022-11-27T04:05:56.665Z,11.15
2022-11-27T04:08:25.622Z,12.10
2022-11-27T04:10:52.778Z,11.32
2022-11-27T04:13:20.237Z,11.23
2022-11-27T04:15:47.745Z,11.40
2022-11-27T04:18:15.344Z,12.45
2022-11-27T04:20:42.538Z,12.50
2022-11-27T04:23:10.576Z,12.80
2022-11-27T04:25:37.794Z,12.63
2022-11-27T04:28:05.352Z,13.10
2022-11-27T04:30:32.474Z,13.55
2022-11-27T04:32:59.913Z,13.55
2022-11-27T04:35:27.080Z,13.98
2022-11-27T04:37:56.648Z,13.57
2022-11-27T04:40:24.075Z,13.88
2022-11-27T04:42:52.132Z,13.52
2022-11-27T04:45:19.429Z,15.07
2022-11-27T04:47:46.866Z,14.63
2022-11-27T04:50:14.080Z,14.95
2022-11-27T04:52:41.557Z,14.32
2022-11-27T04:55:09.313Z,15.80
2022-11-27T04:57:36.781Z,15.25
2022-11-27T05:00:05.342Z,15.23
2022-11-27T05:02:33.021Z,15.02
2022-11-27T05:05:00.305Z,15.68
2022-11-27T05:07:27.993Z,16.60
2022-11-27T05:09:55.174Z,15.77
2022-11-27T05:12:22.736Z,14.65
2022-11-27T05:14:49.899Z,15.48
2022-11-27T05:17:17.375Z,14.88
2022-11-27T05:19:44.532Z,14.55
2022-11-27T05:22:12.004Z,15.30
2022-11-27T05:24:39.360Z,15.60
2022-11-27T05:27:07.009Z,15.60
2022-11-27T05:29:34.393Z,15.68
2022-11-27T05:32:01.960Z,16.20
2022-11-27T05:34:29.108Z,15.35
2022-11-27T05:36:56.617Z,15.23
2022-11-27T05:39:24.023Z,16.08
2022-11-27T05:41:51.477Z,15.68
2022-11-27T05:44:18.655Z,15.43
2022-11-27T05:46:46.241Z,14.88
2022-11-27T05:49:15.708Z,14.32
2022-11-27T05:51:50.660Z,16.17
2022-11-27T05:54:19.123Z,15.48
2022-11-27T05:56:46.649Z,16.10
2022-11-27T05:59:14.579Z,15.50
2022-11-27T06:01:42.760Z,16.10
2022-11-27T06:04:09.995Z,16.25
2022-11-27T06:06:37.474Z,15.48
2022-11-27T06:09:08.059Z,14.98
2022-11-27T06:11:39.822Z,15.00
2022-11-27T06:14:11.068Z,15.85
2022-11-27T06:16:38.835Z,14.57
2022-11-27T06:19:06.071Z,15.32
2022-11-27T06:21:33.630Z,16.70
2022-11-27T06:24:00.770Z,14.50
2022-11-27T06:26:30.786Z,16.30
2022-11-27T06:28:59.432Z,16.35
2022-11-27T06:31:30.260Z,16.50
2022-11-27T06:33:58.358Z,15.43
2022-11-27T06:36:29.887Z,15.48
2022-11-27T06:38:57.173Z,17.90
2022-11-27T06:41:27.116Z,17.88
2022-11-27T06:43:55.514Z,15.68
2022-11-27T06:46:23.996Z,17.50
2022-11-27T06:48:53.235Z,16.95
2022-11-27T06:51:26.016Z,16.42
2022-11-27T06:53:53.930Z,16.52
2022-11-27T06:56:25.333Z,17.23
2022-11-27T06:58:54.662Z,16.67
2022-11-27T07:01:23.738Z,16.67
2022-11-27T07:03:51.510Z,16.92
2022-11-27T07:06:23.053Z,14.10
2022-11-27T07:08:50.900Z,15.23
2022-11-27T07:11:21.083Z,14.27
2022-11-27T07:13:49.832Z,14.90
2022-11-27T07:16:18.578Z,13.75
2022-11-27T07:18:48.710Z,13.90
2022-11-27T07:21:16.968Z,13.93
2022-11-27T07:23:44.372Z,13.10
2022-11-27T07:26:17.606Z,12.52
2022-11-27T07:28:45.972Z,13.07
2022-11-27T07:31:18.979Z,13.65
2022-11-27T07:33:46.964Z,11.73
2022-11-27T07:36:23.521Z,11.50
2022-11-27T07:38:50.712Z,11.65
2022-11-27T07:41:18.616Z,11.77
2022-11-27T07:43:46.662Z,11.88
2022-11-27T07:46:20.544Z,10.60
2022-11-27T07:48:47.993Z,12.40
2022-11-27T07:51:18.226Z,11.00
2022-11-27T07:53:46.152Z,11.95
2022-11-27T07:56:15.850Z,11.07
2022-11-27T07:58:43.443Z,10.68
2022-11-27T08:01:14.029Z,10.65
2022-11-27T08:03:44.364Z,10.20
2022-11-27T08:06:26.075Z,9.65
2022-11-27T08:08:56.726Z,9.73
2022-11-27T08:11:27.402Z,8.53
2022-11-27T08:14:02.793Z,8.93
2022-11-27T08:16:31.548Z,8.77
2022-11-27T08:18:59.110Z,7.78
2022-11-27T08:21:27.367Z,9.75
2022-11-27T08:23:54.567Z,8.50
2022-11-27T08:26:22.081Z,9.10
2022-11-27T08:28:52.741Z,10.35
2022-11-27T08:31:21.028Z,10.43
2022-11-27T08:33:48.316Z,10.48
2022-11-27T08:36:18.414Z,10.52
2022-11-27T08:38:47.001Z,10.02
2022-11-27T08:41:14.577Z,11.48
2022-11-27T08:43:41.791Z,11.02
2022-11-27T08:46:10.373Z,11.48
2022-11-27T08:48:37.602Z,10.77
2022-11-27T08:51:10.761Z,11.95
2022-11-27T08:53:38.074Z,9.98
2022-11-27T08:56:11.854Z,9.80
2022-11-27T08:58:41.095Z,10.25
2022-11-27T09:01:16.289Z,9.43
2022-11-27T09:03:43.737Z,9.05
2022-11-27T09:06:13.839Z,9.80
2022-11-27T09:08:42.401Z,9.02
2022-11-27T09:11:10.336Z,10.10
2022-11-27T09:13:40.193Z,9.50
2022-11-27T09:16:10.370Z,9.30
2022-11-27T09:18:38.695Z,10.88
2022-11-27T09:21:10.798Z,9.60
2022-11-27T09:23:38.812Z,10.43
2022-11-27T09:26:08.930Z,10.07
2022-11-27T09:28:37.456Z,9.68
2022-11-27T09:31:06.719Z,10.07
2022-11-27T09:33:36.362Z,9.43
2022-11-27T09:36:09.130Z,9.52
2022-11-27T09:38:38.392Z,8.88
2022-11-27T09:41:20.088Z,8.65
2022-11-27T09:46:40.895Z,9.27
2022-11-27T09:49:14.553Z,9.40
2022-11-27T09:52:14.827Z,10.75
2022-11-27T09:55:00.313Z,10.40
2022-11-27T09:57:32.799Z,9.80
2022-11-27T10:00:10.863Z,10.10
2022-11-27T10:02:38.352Z,10.55
2022-11-27T10:05:17.843Z,10.25
2022-11-27T10:08:10.968Z,9.55
2022-11-27T10:10:45.601Z,11.05
2022-11-27T10:13:43.268Z,10.15
2022-11-27T10:16:33.959Z,12.20
2022-11-27T10:19:25.311Z,11.07
2022-11-27T10:22:00.054Z,11.80
2022-11-27T10:25:01.054Z,10.82
2022-11-27T10:27:38.235Z,11.55
2022-11-27T10:30:18.486Z,12.05
2022-11-27T10:32:56.783Z,11.50
2022-11-27T10:35:26.661Z,10.48
2022-11-27T10:38:14.912Z,11.68
2022-11-27T10:41:00.869Z,10.98
2022-11-27T10:43:28.350Z,10.90
2022-11-27T10:46:04.948Z,10.95
2022-11-27T10:48:33.497Z,9.88
2022-11-27T10:51:00.988Z,9.65
2022-11-27T10:53:43.017Z,10.45
2022-11-27T10:56:16.220Z,10.00
2022-11-27T10:58:50.248Z,10.18
2022-11-27T11:01:20.661Z,9.10
2022-11-27T11:03:48.294Z,9.93
2022-11-27T11:06:27.124Z,10.10
2022-11-27T11:09:04.771Z,10.15
2022-11-27T11:11:32.147Z,10.48
2022-11-27T11:13:59.701Z,11.35
2022-11-27T11:16:34.838Z,11.05
2022-11-27T11:19:03.431Z,11.73
2022-11-27T11:21:38.767Z,11.68
2022-11-27T11:24:40.312Z,11.98
2022-11-27T11:27:16.326Z,11.55
2022-11-27T11:29:46.612Z,11.57
2022-11-27T11:32:21.793Z,10.65
2022-11-27T11:34:59.192Z,10.20
2022-11-27T11:37:32.006Z,10.40
2022-11-27T11:39:59.544Z,10.88
2022-11-27T11:42:29.900Z,10.57
2022-11-27T11:45:13.300Z,10.20
2022-11-27T11:47:49.972Z,10.95
2022-11-27T11:50:35.388Z,11.27
2022-11-27T11:53:12.856Z,10.38
2022-11-27T11:56:01.008Z,10.75
2022-11-27T11:58:46.911Z,12.25
2022-11-27T12:01:32.723Z,12.38
2022-11-27T12:04:34.038Z,11.40
2022-11-27T12:07:17.536Z,11.93
2022-11-27T12:09:53.665Z,11.73
2022-11-27T12:12:55.055Z,11.10
2022-11-27T12:15:44.741Z,12.15
2022-11-27T12:18:21.167Z,13.00
2022-11-27T12:21:06.648Z,10.48
2022-11-27T12:23:49.772Z,11.25
2022-11-27T12:26:31.477Z,11.32
2022-11-27T12:29:29.770Z,10.77
2022-11-27T12:32:18.510Z,10.30
2022-11-27T12:34:55.184Z,10.52
2022-11-27T12:37:45.347Z,10.88
2022-11-27T12:40:22.887Z,10.05
2022-11-27T12:43:07.200Z,9.75
2022-11-27T12:45:42.110Z,8.18
2022-11-27T12:48:36.203Z,8.75
2022-11-27T12:51:12.408Z,9.25
2022-11-27T12:53:45.557Z,10.18
2022-11-27T12:56:21.699Z,10.13
2022-11-27T12:58:57.174Z,8.82
2022-11-27T13:01:31.454Z,9.40
2022-11-27T13:04:19.905Z,10.43
2022-11-27T13:07:00.025Z,10.63
2022-11-27T13:09:51.581Z,13.27
2022-11-27T13:12:37.777Z,12.65
2022-11-27T13:15:16.895Z,10.20
2022-11-27T13:17:48.208Z,10.20
2022-11-27T13:20:20.420Z,9.87
2022-11-27T13:22:50.001Z,10.13
2022-11-27T13:25:17.431Z,10.20
2022-11-27T13:27:49.423Z,9.82
2022-11-27T13:30:23.938Z,9.48
2022-11-27T13:32:55.262Z,11.20
2022-11-27T13:35:45.094Z,9.50
2022-11-27T13:38:22.832Z,13.30
2022-11-27T13:40:53.320Z,12.90
2022-11-27T13:43:34.400Z,13.80
2022-11-27T13:46:07.417Z,12.30
2022-11-27T13:48:38.418Z,14.35
2022-11-27T13:51:08.315Z,13.00
2022-11-27T13:53:42.148Z,13.45
2022-11-27T13:56:10.071Z,13.82
2022-11-27T13:58:42.952Z,14.68
2022-11-27T14:01:20.627Z,14.82
2022-11-27T14:03:49.539Z,14.30
2022-11-27T14:06:30.656Z,15.07
2022-11-27T14:09:01.017Z,14.02
2022-11-27T14:11:44.445Z,14.15
2022-11-27T14:14:27.245Z,14.93
2022-11-27T14:17:02.722Z,13.82
2022-11-27T14:19:45.334Z,14.30
2022-11-27T14:23:11.308Z,13.32
2022-11-27T14:25:39.055Z,12.93
2022-11-27T14:28:21.474Z,13.57
2022-11-27T14:31:00.316Z,12.63
2022-11-27T14:33:59.550Z,14.00
2022-11-27T14:36:30.759Z,13.07
2022-11-27T14:38:59.130Z,12.48
2022-11-27T14:41:28.181Z,13.55
2022-11-27T14:44:02.613Z,13.40
2022-11-27T14:46:32.681Z,13.77
2022-11-27T14:48:59.886Z,12.60
2022-11-27T14:51:29.793Z,14.35
2022-11-27T14:54:01.353Z,14.70
2022-11-27T14:59:00.992Z,13.30
2022-11-27T15:01:34.666Z,14.35
2022-11-27T15:04:23.497Z,13.98
2022-11-27T15:06:51.693Z,15.07
2022-11-27T15:09:31.736Z,14.15
2022-11-27T15:12:17.442Z,14.63
2022-11-27T15:15:06.568Z,14.10
2022-11-27T15:17:37.379Z,14.13
2022-11-27T15:20:14.861Z,14.52
2022-11-27T15:22:57.456Z,16.67
2022-11-27T15:25:39.139Z,16.02
2022-11-27T15:28:36.174Z,16.40
2022-11-27T15:31:24.978Z,16.17
2022-11-27T15:34:08.971Z,15.30
2022-11-27T15:36:42.596Z,13.65
2022-11-27T15:39:22.270Z,14.32
2022-11-27T15:42:00.246Z,12.55
2022-11-27T15:44:31.222Z,14.07
2022-11-27T15:47:01.068Z,14.48
2022-11-27T15:49:28.816Z,15.32
2022-11-27T15:51:57.313Z,15.18
2022-11-27T15:54:25.340Z,15.57
2022-11-27T15:56:52.541Z,18.02
2022-11-27T15:59:22.983Z,16.00
2022-11-27T16:01:50.249Z,17.83
2022-11-27T16:04:17.918Z,17.40
2022-11-27T16:06:45.512Z,19.98
2022-11-27T16:09:12.987Z,18.52
2022-11-27T16:11:40.455Z,20.20
2022-11-27T16:14:07.980Z,20.42
2022-11-27T16:16:35.633Z,20.88
2022-11-27T16:19:06.466Z,19.88
2022-11-27T16:21:35.744Z,19.88
2022-11-27T16:24:06.133Z,18.63
2022-11-27T16:26:33.829Z,19.63
2022-11-27T16:29:01.380Z,20.27
2022-11-27T16:31:28.974Z,19.60
2022-11-27T16:33:56.512Z,20.83
2022-11-27T16:36:25.540Z,21.80
2022-11-27T16:38:54.699Z,21.48
2022-11-27T16:41:25.325Z,19.27
2022-11-27T16:43:56.730Z,21.17
2022-11-27T16:46:28.118Z,22.92
2022-11-27T16:48:58.927Z,22.70
2022-11-27T16:51:31.369Z,22.10
2022-11-27T16:54:01.207Z,23.40
2022-11-27T16:56:30.417Z,21.65
2022-11-27T16:59:02.782Z,21.45
2022-11-27T17:01:34.705Z,21.98
2022-11-27T17:04:09.144Z,18.20
2022-11-27T17:06:38.839Z,21.45
2022-11-27T17:09:08.101Z,23.60
2022-11-27T17:11:37.082Z,24.05
2022-11-27T17:14:08.670Z,23.73
2022-11-27T17:16:39.516Z,23.35
2022-11-27T17:19:07.580Z,23.60
2022-11-27T17:21:35.486Z,23.38
2022-11-27T17:24:14.345Z,24.33
2022-11-27T17:26:45.253Z,24.60
2022-11-27T17:29:14.929Z,24.98
2022-11-27T17:31:42.635Z,27.70
2022-11-27T17:34:13.317Z,29.30
2022-11-27T17:36:43.030Z,29.25
2022-11-27T17:39:13.047Z,30.20
2022-11-27T17:41:41.680Z,28.95
2022-11-27T17:44:09.140Z,28.50
2022-11-27T17:46:37.193Z,29.30
2022-11-27T17:49:07.320Z,27.90
2022-11-27T17:51:36.278Z,27.42
2022-11-27T17:54:05.722Z,26.63
2022-11-27T17:56:34.889Z,25.23
2022-11-27T17:59:03.293Z,25.17
2022-11-27T18:01:31.210Z,26.60
2022-11-27T18:04:01.038Z,25.98
2022-11-27T18:06:31.332Z,25.95
2022-11-27T18:08:59.905Z,25.85
2022-11-27T18:11:30.316Z,23.75
2022-11-27T18:14:01.559Z,24.10
2022-11-27T18:16:36.947Z,24.15
2022-11-27T18:19:07.537Z,24.20
2022-11-27T18:21:35.496Z,23.77
2022-11-27T18:29:40.202Z,21.25
2022-11-27T18:32:08.302Z,19.88
2022-11-27T18:34:35.973Z,19.02
2022-11-27T18:37:04.417Z,19.05
2022-11-27T18:39:32.204Z,21.63
2022-11-27T18:41:59.688Z,20.73
2022-11-27T18:44:27.205Z,20.08
2022-11-27T18:46:54.985Z,19.55
2022-11-27T18:49:23.932Z,20.83
2022-11-27T18:51:53.090Z,20.70
2022-11-27T18:54:21.533Z,24.15
2022-11-27T18:56:48.995Z,25.08
2022-11-27T18:59:16.558Z,24.73
2022-11-27T19:01:45.614Z,23.83
2022-11-27T19:04:13.305Z,22.25
2022-11-27T19:06:42.430Z,24.30
2022-11-27T19:09:12.322Z,26.10
2022-11-27T19:11:40.111Z,25.20
2022-11-27T19:14:08.027Z,23.65
2022-11-27T19:16:41.829Z,23.05
2022-11-27T19:19:30.031Z,22.60
2022-11-27T19:21:57.593Z,20.92
2022-11-27T19:24:26.209Z,20.38
2022-11-27T19:26:54.224Z,21.05
2022-11-27T19:29:21.730Z,20.67
2022-11-27T19:31:48.948Z,20.42
2022-11-27T19:34:16.449Z,21.95
2022-11-27T19:36:43.956Z,22.98
2022-11-27T19:39:14.458Z,21.38
2022-11-27T19:41:43.423Z,21.75
2022-11-27T19:44:12.706Z,20.17
2022-11-27T19:46:41.205Z,21.83
2022-11-27T19:49:14.183Z,20.60
2022-11-27T19:51:41.930Z,20.73
2022-11-27T19:54:13.145Z,19.92
2022-11-27T19:56:42.337Z,20.30
2022-11-27T19:59:11.309Z,18.73
2022-11-27T20:01:40.775Z,19.17
2022-11-27T20:04:11.357Z,17.90
2022-11-27T20:06:39.942Z,17.73
2022-11-27T20:09:08.286Z,18.83
2022-11-27T20:11:36.430Z,18.17
2022-11-27T20:14:06.629Z,19.15
2022-11-27T20:16:35.736Z,18.70
2022-11-27T20:19:06.080Z,19.10
2022-11-27T20:21:36.615Z,19.40
2022-11-27T20:24:04.579Z,19.73
2022-11-27T20:26:37.082Z,19.75
2022-11-27T20:29:06.370Z,19.08
2022-11-27T20:31:36.460Z,17.35
2022-11-27T20:34:06.753Z,19.03
2022-11-27T20:36:37.971Z,19.90
2022-11-27T20:39:05.897Z,23.85
2022-11-27T20:41:33.965Z,24.67
2022-11-27T20:44:04.829Z,20.77
2022-11-27T20:46:33.227Z,19.23
2022-11-27T20:49:01.966Z,23.38
2022-11-27T20:51:33.552Z,24.48
2022-11-27T20:54:09.156Z,24.63
2022-11-27T20:56:36.567Z,24.00
2022-11-27T20:59:05.185Z,24.80
2022-11-27T21:01:35.496Z,24.25
2022-11-27T21:04:09.617Z,23.75
2022-11-27T21:06:43.476Z,24.70
2022-11-27T21:09:13.968Z,23.05
2022-11-27T21:11:42.301Z,24.48
2022-11-27T21:14:12.803Z,25.92
2022-11-27T21:16:43.284Z,27.25
2022-11-27T21:19:19.863Z,29.60
2022-11-27T21:21:47.824Z,30.50
2022-11-27T21:24:15.764Z,30.80
2022-11-27T21:26:43.392Z,31.10
2022-11-27T21:29:12.527Z,29.58
2022-11-27T21:31:46.116Z,32.58
2022-11-27T21:34:15.906Z,31.08
2022-11-27T21:36:44.348Z,32.72
2022-11-27T21:39:13.409Z,33.30
2022-11-27T21:41:41.365Z,34.60
2022-11-27T21:44:09.749Z,32.30
2022-11-27T21:46:37.642Z,32.78
2022-11-27T21:49:06.819Z,34.03
2022-11-27T21:51:34.180Z,34.92
2022-11-27T21:54:06.960Z,34.47
2022-11-27T21:56:37.712Z,32.75
2022-11-27T21:59:06.928Z,35.72
2022-11-27T22:01:34.543Z,33.50
2022-11-27T22:04:02.712Z,31.02
2022-11-27T22:06:35.085Z,30.65
2022-11-27T22:09:03.975Z,34.03
2022-11-27T22:11:31.236Z,32.42
2022-11-27T22:14:02.580Z,33.00
2022-11-27T22:16:32.497Z,32.97
2022-11-27T22:19:01.305Z,32.33
2022-11-27T22:21:30.208Z,33.58
2022-11-27T22:23:59.671Z,35.50
2022-11-27T22:26:27.594Z,40.80
2022-11-27T22:28:57.122Z,36.72
2022-11-27T22:31:29.703Z,38.95
2022-11-27T22:33:57.714Z,39.70
2022-11-27T22:36:30.372Z,41.70
2022-11-27T22:39:00.789Z,39.35
2022-11-27T22:41:30.885Z,41.40
2022-11-27T22:44:00.478Z,41.65
2022-11-27T22:46:33.232Z,39.17
2022-11-27T22:49:03.591Z,36.80
2022-11-27T22:51:32.863Z,37.97
2022-11-27T22:54:01.809Z,34.80
2022-11-27T22:56:29.085Z,36.35
2022-11-27T22:59:17.592Z,35.45
2022-11-27T23:01:44.796Z,35.78
2022-11-27T23:04:12.244Z,36.08
2022-11-27T23:06:39.489Z,33.80
2022-11-27T23:09:07.940Z,33.65
2022-11-27T23:11:35.063Z,31.15
2022-11-27T23:14:03.473Z,31.88
2022-11-27T23:16:30.981Z,34.42
2022-11-27T23:18:58.432Z,34.28
2022-11-27T23:21:27.354Z,35.17
2022-11-27T23:23:54.839Z,38.15
2022-11-27T23:26:23.980Z,38.60
2022-11-27T23:28:53.564Z,37.88
2022-11-27T23:31:31.925Z,39.92
2022-11-27T23:34:02.014Z,36.35
2022-11-27T23:36:31.378Z,39.15
2022-11-27T23:39:03.715Z,43.83
2022-11-27T23:43:59.445Z,43.20
2022-11-27T23:46:29.437Z,44.38
2022-11-27T23:48:59.499Z,41.45
2022-11-27T23:51:29.881Z,43.28
2022-11-27T23:53:58.233Z,43.97
2022-11-27T23:56:28.210Z,42.05
2022-11-27T23:58:56.515Z,41.92
